sensor_id;sensor_type;location;lat;lon;timestamp;P1;durP1;ratioP1;P2;durP2;ratioP2
40533;SDS011;26233;51.894;10.192;2022-10-15T00:00:53;3.45;;;3.17;;
40533;SDS011;26233;51.894;10.192;2022-10-15T00:03:35;4.18;;;3.72;;
40533;SDS011;26233;51.894;10.192;2022-10-15T00:06:03;3.97;;;3.67;;
40533;SDS011;26233;51.894;10.192;2022-10-15T00:08:32;4.18;;;3.85;;
40533;SDS011;26233;51.894;10.192;2022-10-15T00:11:05;4.30;;;3.97;;
40533;SDS011;26233;51.894;10.192;2022-10-15T00:13:34;3.80;;;3.50;;
40533;SDS011;26233;51.894;10.192;2022-10-15T00:16:02;4.25;;;3.85;;
40533;SDS011;26233;51.894;10.192;2022-10-15T00:18:32;4.32;;;3.92;;
40533;SDS011;26233;51.894;10.192;2022-10-15T00:21:01;4.22;;;3.75;;
40533;SDS011;26233;51.894;10.192;2022-10-15T00:23:32;4.40;;;4.00;;
40533;SDS011;26233;51.894;10.192;2022-10-15T00:26:01;4.45;;;4.05;;
40533;SDS011;26233;51.894;10.192;2022-10-15T00:28:30;4.53;;;4.22;;
40533;SDS011;26233;51.894;10.192;2022-10-15T00:31:04;4.20;;;3.85;;
40533;SDS011;26233;51.894;10.192;2022-10-15T00:33:34;4.22;;;3.90;;
40533;SDS011;26233;51.894;10.192;2022-10-15T00:36:03;4.35;;;3.95;;
40533;SDS011;26233;51.894;10.192;2022-10-15T00:38:33;4.30;;;3.90;;
40533;SDS011;26233;51.894;10.192;2022-10-15T00:41:00;4.63;;;4.22;;
40533;SDS011;26233;51.894;10.192;2022-10-15T00:46:20;4.45;;;4.05;;
40533;SDS011;26233;51.894;10.192;2022-10-15T00:48:53;4.40;;;4.03;;
40533;SDS011;26233;51.894;10.192;2022-10-15T00:51:26;4.30;;;4.00;;
40533;SDS011;26233;51.894;10.192;2022-10-15T00:53:56;4.60;;;4.20;;
40533;SDS011;26233;51.894;10.192;2022-10-15T00:56:24;4.13;;;3.83;;
40533;SDS011;26233;51.894;10.192;2022-10-15T00:58:53;4.50;;;4.10;;
40533;SDS011;26233;51.894;10.192;2022-10-15T01:01:21;4.35;;;3.95;;
40533;SDS011;26233;51.894;10.192;2022-10-15T01:03:49;4.82;;;4.43;;
40533;SDS011;26233;51.894;10.192;2022-10-15T01:06:18;4.15;;;3.85;;
40533;SDS011;26233;51.894;10.192;2022-10-15T01:08:45;3.78;;;3.47;;
40533;SDS011;26233;51.894;10.192;2022-10-15T01:11:16;4.30;;;4.00;;
40533;SDS011;26233;51.894;10.192;2022-10-15T01:13:59;4.47;;;4.13;;
40533;SDS011;26233;51.894;10.192;2022-10-15T01:16:37;4.32;;;3.92;;
40533;SDS011;26233;51.894;10.192;2022-10-15T01:19:22;4.53;;;4.22;;
40533;SDS011;26233;51.894;10.192;2022-10-15T01:22:05;4.30;;;3.90;;
40533;SDS011;26233;51.894;10.192;2022-10-15T01:24:45;4.20;;;3.90;;
40533;SDS011;26233;51.894;10.192;2022-10-15T01:27:31;4.20;;;3.90;;
40533;SDS011;26233;51.894;10.192;2022-10-15T01:35:53;4.45;;;4.07;;
40533;SDS011;26233;51.894;10.192;2022-10-15T01:38:31;4.78;;;4.38;;
40533;SDS011;26233;51.894;10.192;2022-10-15T01:41:09;4.30;;;4.00;;
40533;SDS011;26233;51.894;10.192;2022-10-15T01:43:42;4.22;;;3.92;;
40533;SDS011;26233;51.894;10.192;2022-10-15T01:46:15;4.80;;;4.40;;
40533;SDS011;26233;51.894;10.192;2022-10-15T01:48:46;4.95;;;4.55;;
40533;SDS011;26233;51.894;10.192;2022-10-15T01:51:18;5.35;;;4.95;;
40533;SDS011;26233;51.894;10.192;2022-10-15T01:53:47;4.75;;;4.35;;
40533;SDS011;26233;51.894;10.192;2022-10-15T01:56:16;4.30;;;4.00;;
40533;SDS011;26233;51.894;10.192;2022-10-15T01:58:48;4.85;;;4.45;;
40533;SDS011;26233;51.894;10.192;2022-10-15T02:01:19;4.50;;;4.15;;
40533;SDS011;26233;51.894;10.192;2022-10-15T02:03:47;5.53;;;5.03;;
40533;SDS011;26233;51.894;10.192;2022-10-15T02:06:18;5.07;;;4.68;;
40533;SDS011;26233;51.894;10.192;2022-10-15T02:08:54;5.65;;;5.15;;
40533;SDS011;26233;51.894;10.192;2022-10-15T02:11:28;5.13;;;4.72;;
40533;SDS011;26233;51.894;10.192;2022-10-15T02:13:59;5.13;;;4.63;;
40533;SDS011;26233;51.894;10.192;2022-10-15T02:16:35;5.28;;;4.78;;
40533;SDS011;26233;51.894;10.192;2022-10-15T02:19:11;5.10;;;4.70;;
40533;SDS011;26233;51.894;10.192;2022-10-15T02:21:44;5.30;;;4.90;;
40533;SDS011;26233;51.894;10.192;2022-10-15T02:24:19;5.30;;;4.80;;
40533;SDS011;26233;51.894;10.192;2022-10-15T02:26:50;5.60;;;5.10;;
40533;SDS011;26233;51.894;10.192;2022-10-15T02:29:21;5.00;;;4.30;;
40533;SDS011;26233;51.894;10.192;2022-10-15T02:31:53;6.18;;;5.57;;
40533;SDS011;26233;51.894;10.192;2022-10-15T02:34:24;6.15;;;5.55;;
40533;SDS011;26233;51.894;10.192;2022-10-15T02:36:54;5.82;;;5.32;;
40533;SDS011;26233;51.894;10.192;2022-10-15T02:39:23;6.00;;;5.50;;
40533;SDS011;26233;51.894;10.192;2022-10-15T02:41:51;5.70;;;5.10;;
40533;SDS011;26233;51.894;10.192;2022-10-15T02:44:19;5.47;;;5.07;;
40533;SDS011;26233;51.894;10.192;2022-10-15T02:46:47;5.38;;;4.97;;
40533;SDS011;26233;51.894;10.192;2022-10-15T02:49:15;5.40;;;5.00;;
40533;SDS011;26233;51.894;10.192;2022-10-15T02:51:42;5.50;;;5.10;;
40533;SDS011;26233;51.894;10.192;2022-10-15T02:54:10;5.55;;;5.00;;
40533;SDS011;26233;51.894;10.192;2022-10-15T02:56:37;5.82;;;5.32;;
40533;SDS011;26233;51.894;10.192;2022-10-15T02:59:04;5.32;;;4.90;;
40533;SDS011;26233;51.894;10.192;2022-10-15T03:01:31;5.25;;;4.85;;
40533;SDS011;26233;51.894;10.192;2022-10-15T03:03:59;5.25;;;4.85;;
40533;SDS011;26233;51.894;10.192;2022-10-15T03:06:28;4.68;;;4.35;;
40533;SDS011;26233;51.894;10.192;2022-10-15T03:08:55;5.03;;;4.63;;
40533;SDS011;26233;51.894;10.192;2022-10-15T03:11:23;5.25;;;4.85;;
40533;SDS011;26233;51.894;10.192;2022-10-15T03:13:50;5.00;;;4.60;;
40533;SDS011;26233;51.894;10.192;2022-10-15T03:16:17;4.80;;;4.47;;
40533;SDS011;26233;51.894;10.192;2022-10-15T03:18:44;4.85;;;4.47;;
40533;SDS011;26233;51.894;10.192;2022-10-15T03:21:12;4.88;;;4.55;;
40533;SDS011;26233;51.894;10.192;2022-10-15T03:23:40;5.25;;;4.75;;
40533;SDS011;26233;51.894;10.192;2022-10-15T03:26:07;5.10;;;4.70;;
40533;SDS011;26233;51.894;10.192;2022-10-15T03:28:34;5.45;;;4.88;;
40533;SDS011;26233;51.894;10.192;2022-10-15T03:31:01;5.18;;;4.78;;
40533;SDS011;26233;51.894;10.192;2022-10-15T03:33:29;5.30;;;4.90;;
40533;SDS011;26233;51.894;10.192;2022-10-15T03:35:56;5.47;;;5.07;;
40533;SDS011;26233;51.894;10.192;2022-10-15T03:38:23;5.30;;;4.90;;
40533;SDS011;26233;51.894;10.192;2022-10-15T03:40:51;5.65;;;5.15;;
40533;SDS011;26233;51.894;10.192;2022-10-15T03:43:18;5.13;;;4.72;;
40533;SDS011;26233;51.894;10.192;2022-10-15T03:45:49;5.50;;;5.10;;
40533;SDS011;26233;51.894;10.192;2022-10-15T03:48:16;5.50;;;5.03;;
40533;SDS011;26233;51.894;10.192;2022-10-15T03:50:44;5.03;;;4.65;;
40533;SDS011;26233;51.894;10.192;2022-10-15T03:53:12;5.38;;;4.97;;
40533;SDS011;26233;51.894;10.192;2022-10-15T03:55:39;5.25;;;4.78;;
40533;SDS011;26233;51.894;10.192;2022-10-15T03:58:07;5.45;;;5.05;;
40533;SDS011;26233;51.894;10.192;2022-10-15T04:00:34;5.97;;;5.47;;
40533;SDS011;26233;51.894;10.192;2022-10-15T04:03:01;5.75;;;5.32;;
40533;SDS011;26233;51.894;10.192;2022-10-15T04:05:28;5.43;;;5.03;;
40533;SDS011;26233;51.894;10.192;2022-10-15T04:07:55;6.60;;;6.03;;
40533;SDS011;26233;51.894;10.192;2022-10-15T04:10:23;5.90;;;5.40;;
40533;SDS011;26233;51.894;10.192;2022-10-15T04:12:50;6.13;;;5.63;;
40533;SDS011;26233;51.894;10.192;2022-10-15T04:15:18;6.55;;;5.95;;
40533;SDS011;26233;51.894;10.192;2022-10-15T04:17:45;6.18;;;5.68;;
40533;SDS011;26233;51.894;10.192;2022-10-15T04:20:12;6.65;;;6.05;;
40533;SDS011;26233;51.894;10.192;2022-10-15T04:22:40;6.45;;;5.88;;
40533;SDS011;26233;51.894;10.192;2022-10-15T04:25:07;6.55;;;6.03;;
40533;SDS011;26233;51.894;10.192;2022-10-15T04:27:34;6.78;;;6.20;;
40533;SDS011;26233;51.894;10.192;2022-10-15T04:30:02;6.40;;;5.90;;
40533;SDS011;26233;51.894;10.192;2022-10-15T04:32:31;6.75;;;6.25;;
40533;SDS011;26233;51.894;10.192;2022-10-15T04:34:58;7.47;;;6.88;;
40533;SDS011;26233;51.894;10.192;2022-10-15T04:37:25;7.40;;;6.80;;
40533;SDS011;26233;51.894;10.192;2022-10-15T04:39:52;7.15;;;6.55;;
40533;SDS011;26233;51.894;10.192;2022-10-15T04:42:19;6.63;;;6.05;;
40533;SDS011;26233;51.894;10.192;2022-10-15T04:44:46;6.65;;;6.10;;
40533;SDS011;26233;51.894;10.192;2022-10-15T04:47:13;6.80;;;5.88;;
40533;SDS011;26233;51.894;10.192;2022-10-15T04:49:41;6.60;;;6.10;;
40533;SDS011;26233;51.894;10.192;2022-10-15T04:52:08;5.88;;;5.38;;
40533;SDS011;26233;51.894;10.192;2022-10-15T04:54:36;5.65;;;5.25;;
40533;SDS011;26233;51.894;10.192;2022-10-15T04:57:03;5.30;;;4.90;;
40533;SDS011;26233;51.894;10.192;2022-10-15T04:59:31;5.50;;;5.10;;
40533;SDS011;26233;51.894;10.192;2022-10-15T05:01:58;5.20;;;4.80;;
40533;SDS011;26233;51.894;10.192;2022-10-15T05:04:25;5.30;;;4.90;;
40533;SDS011;26233;51.894;10.192;2022-10-15T05:06:54;5.82;;;5.32;;
40533;SDS011;26233;51.894;10.192;2022-10-15T05:09:21;5.25;;;4.85;;
40533;SDS011;26233;51.894;10.192;2022-10-15T05:11:48;5.93;;;5.35;;
40533;SDS011;26233;51.894;10.192;2022-10-15T05:14:15;5.50;;;5.10;;
40533;SDS011;26233;51.894;10.192;2022-10-15T05:16:42;5.45;;;4.95;;
40533;SDS011;26233;51.894;10.192;2022-10-15T05:19:09;4.80;;;4.40;;
40533;SDS011;26233;51.894;10.192;2022-10-15T05:21:37;5.57;;;5.15;;
40533;SDS011;26233;51.894;10.192;2022-10-15T05:24:06;5.88;;;5.38;;
40533;SDS011;26233;51.894;10.192;2022-10-15T05:26:33;5.22;;;4.82;;
40533;SDS011;26233;51.894;10.192;2022-10-15T05:29:00;6.30;;;5.32;;
40533;SDS011;26233;51.894;10.192;2022-10-15T05:31:28;5.35;;;4.95;;
40533;SDS011;26233;51.894;10.192;2022-10-15T05:33:57;5.57;;;5.18;;
40533;SDS011;26233;51.894;10.192;2022-10-15T05:36:25;5.28;;;4.88;;
40533;SDS011;26233;51.894;10.192;2022-10-15T05:38:54;5.78;;;5.32;;
40533;SDS011;26233;51.894;10.192;2022-10-15T05:41:24;5.18;;;4.78;;
40533;SDS011;26233;51.894;10.192;2022-10-15T05:43:53;5.80;;;5.25;;
40533;SDS011;26233;51.894;10.192;2022-10-15T05:46:22;5.75;;;5.25;;
40533;SDS011;26233;51.894;10.192;2022-10-15T05:48:49;5.57;;;5.10;;
40533;SDS011;26233;51.894;10.192;2022-10-15T05:51:17;6.00;;;5.53;;
40533;SDS011;26233;51.894;10.192;2022-10-15T05:53:45;6.13;;;5.63;;
40533;SDS011;26233;51.894;10.192;2022-10-15T05:56:12;5.75;;;5.25;;
40533;SDS011;26233;51.894;10.192;2022-10-15T05:58:41;5.85;;;5.35;;
40533;SDS011;26233;51.894;10.192;2022-10-15T06:01:09;5.93;;;5.43;;
40533;SDS011;26233;51.894;10.192;2022-10-15T06:03:39;5.72;;;5.30;;
40533;SDS011;26233;51.894;10.192;2022-10-15T06:06:14;5.93;;;5.47;;
40533;SDS011;26233;51.894;10.192;2022-10-15T06:08:44;5.88;;;5.40;;
40533;SDS011;26233;51.894;10.192;2022-10-15T06:11:12;5.18;;;4.78;;
40533;SDS011;26233;51.894;10.192;2022-10-15T06:13:40;5.65;;;5.22;;
40533;SDS011;26233;51.894;10.192;2022-10-15T06:16:10;5.75;;;5.30;;
40533;SDS011;26233;51.894;10.192;2022-10-15T06:18:38;5.72;;;5.22;;
40533;SDS011;26233;51.894;10.192;2022-10-15T06:21:06;5.63;;;5.22;;
40533;SDS011;26233;51.894;10.192;2022-10-15T06:23:33;5.40;;;5.00;;
40533;SDS011;26233;51.894;10.192;2022-10-15T06:26:01;5.55;;;5.07;;
40533;SDS011;26233;51.894;10.192;2022-10-15T06:28:30;6.35;;;5.75;;
40533;SDS011;26233;51.894;10.192;2022-10-15T06:30:59;6.03;;;5.53;;
40533;SDS011;26233;51.894;10.192;2022-10-15T06:33:27;5.97;;;5.47;;
40533;SDS011;26233;51.894;10.192;2022-10-15T06:35:58;6.57;;;5.97;;
40533;SDS011;26233;51.894;10.192;2022-10-15T06:38:26;5.97;;;5.47;;
40533;SDS011;26233;51.894;10.192;2022-10-15T06:40:53;6.55;;;6.00;;
40533;SDS011;26233;51.894;10.192;2022-10-15T06:43:20;6.63;;;6.13;;
40533;SDS011;26233;51.894;10.192;2022-10-15T06:45:47;5.95;;;5.45;;
40533;SDS011;26233;51.894;10.192;2022-10-15T06:48:16;6.13;;;5.60;;
40533;SDS011;26233;51.894;10.192;2022-10-15T06:50:43;5.30;;;4.90;;
40533;SDS011;26233;51.894;10.192;2022-10-15T06:53:10;5.10;;;4.70;;
40533;SDS011;26233;51.894;10.192;2022-10-15T06:55:37;5.50;;;5.10;;
40533;SDS011;26233;51.894;10.192;2022-10-15T06:58:04;5.30;;;4.90;;
40533;SDS011;26233;51.894;10.192;2022-10-15T07:00:31;5.18;;;4.78;;
40533;SDS011;26233;51.894;10.192;2022-10-15T07:03:01;4.50;;;4.15;;
40533;SDS011;26233;51.894;10.192;2022-10-15T07:05:31;5.22;;;4.70;;
40533;SDS011;26233;51.894;10.192;2022-10-15T07:07:59;5.00;;;4.60;;
40533;SDS011;26233;51.894;10.192;2022-10-15T07:10:27;4.57;;;4.28;;
40533;SDS011;26233;51.894;10.192;2022-10-15T07:12:54;4.65;;;4.25;;
40533;SDS011;26233;51.894;10.192;2022-10-15T07:15:21;4.55;;;4.20;;
40533;SDS011;26233;51.894;10.192;2022-10-15T07:17:48;3.92;;;3.65;;
40533;SDS011;26233;51.894;10.192;2022-10-15T07:20:18;4.05;;;3.75;;
40533;SDS011;26233;51.894;10.192;2022-10-15T07:22:47;3.92;;;3.63;;
40533;SDS011;26233;51.894;10.192;2022-10-15T07:25:14;3.88;;;3.58;;
40533;SDS011;26233;51.894;10.192;2022-10-15T07:27:41;4.20;;;3.90;;
40533;SDS011;26233;51.894;10.192;2022-10-15T07:30:08;4.47;;;4.07;;
40533;SDS011;26233;51.894;10.192;2022-10-15T07:32:36;5.07;;;4.68;;
40533;SDS011;26233;51.894;10.192;2022-10-15T07:35:03;4.60;;;4.30;;
40533;SDS011;26233;51.894;10.192;2022-10-15T07:37:31;4.65;;;4.25;;
40533;SDS011;26233;51.894;10.192;2022-10-15T07:40:01;4.47;;;4.18;;
40533;SDS011;26233;51.894;10.192;2022-10-15T07:42:28;4.93;;;4.53;;
40533;SDS011;26233;51.894;10.192;2022-10-15T07:44:55;4.95;;;4.55;;
40533;SDS011;26233;51.894;10.192;2022-10-15T07:47:23;5.30;;;4.88;;
40533;SDS011;26233;51.894;10.192;2022-10-15T07:49:50;5.28;;;4.88;;
40533;SDS011;26233;51.894;10.192;2022-10-15T07:52:17;5.22;;;4.82;;
40533;SDS011;26233;51.894;10.192;2022-10-15T07:54:44;4.90;;;4.50;;
40533;SDS011;26233;51.894;10.192;2022-10-15T07:57:13;5.32;;;4.88;;
40533;SDS011;26233;51.894;10.192;2022-10-15T07:59:40;4.88;;;4.45;;
40533;SDS011;26233;51.894;10.192;2022-10-15T08:02:09;5.20;;;4.80;;
40533;SDS011;26233;51.894;10.192;2022-10-15T08:04:40;5.05;;;4.65;;
40533;SDS011;26233;51.894;10.192;2022-10-15T08:07:07;5.53;;;5.13;;
40533;SDS011;26233;51.894;10.192;2022-10-15T08:09:34;5.70;;;5.22;;
40533;SDS011;26233;51.894;10.192;2022-10-15T08:12:01;5.40;;;5.00;;
40533;SDS011;26233;51.894;10.192;2022-10-15T08:14:32;5.57;;;5.18;;
40533;SDS011;26233;51.894;10.192;2022-10-15T08:16:59;5.35;;;4.95;;
40533;SDS011;26233;51.894;10.192;2022-10-15T08:19:27;5.82;;;5.32;;
40533;SDS011;26233;51.894;10.192;2022-10-15T08:21:55;5.45;;;5.05;;
40533;SDS011;26233;51.894;10.192;2022-10-15T08:24:22;5.78;;;5.28;;
40533;SDS011;26233;51.894;10.192;2022-10-15T08:26:49;6.15;;;5.65;;
40533;SDS011;26233;51.894;10.192;2022-10-15T08:29:16;5.72;;;5.28;;
40533;SDS011;26233;51.894;10.192;2022-10-15T08:31:44;5.57;;;5.15;;
40533;SDS011;26233;51.894;10.192;2022-10-15T08:34:11;5.55;;;5.15;;
40533;SDS011;26233;51.894;10.192;2022-10-15T08:36:38;5.15;;;4.75;;
40533;SDS011;26233;51.894;10.192;2022-10-15T08:39:05;5.28;;;4.88;;
40533;SDS011;26233;51.894;10.192;2022-10-15T08:41:34;5.05;;;4.68;;
40533;SDS011;26233;51.894;10.192;2022-10-15T08:44:06;5.28;;;4.88;;
40533;SDS011;26233;51.894;10.192;2022-10-15T08:46:41;4.82;;;4.47;;
40533;SDS011;26233;51.894;10.192;2022-10-15T08:49:15;5.03;;;4.63;;
40533;SDS011;26233;51.894;10.192;2022-10-15T08:51:53;5.28;;;4.88;;
40533;SDS011;26233;51.894;10.192;2022-10-15T08:54:28;5.32;;;4.93;;
40533;SDS011;26233;51.894;10.192;2022-10-15T08:57:02;5.15;;;4.75;;
40533;SDS011;26233;51.894;10.192;2022-10-15T08:59:43;5.28;;;4.88;;
40533;SDS011;26233;51.894;10.192;2022-10-15T09:02:18;5.72;;;5.22;;
40533;SDS011;26233;51.894;10.192;2022-10-15T09:04:51;5.40;;;4.97;;
40533;SDS011;26233;51.894;10.192;2022-10-15T09:07:25;5.63;;;5.18;;
40533;SDS011;26233;51.894;10.192;2022-10-15T09:10:04;5.45;;;5.05;;
40533;SDS011;26233;51.894;10.192;2022-10-15T09:12:42;5.75;;;5.25;;
40533;SDS011;26233;51.894;10.192;2022-10-15T09:15:17;6.18;;;5.68;;
40533;SDS011;26233;51.894;10.192;2022-10-15T09:17:48;6.07;;;5.57;;
40533;SDS011;26233;51.894;10.192;2022-10-15T09:20:17;4.82;;;4.43;;
40533;SDS011;26233;51.894;10.192;2022-10-15T09:22:58;5.20;;;4.80;;
40533;SDS011;26233;51.894;10.192;2022-10-15T09:25:28;4.50;;;4.10;;
40533;SDS011;26233;51.894;10.192;2022-10-15T09:28:01;4.38;;;4.07;;
40533;SDS011;26233;51.894;10.192;2022-10-15T09:30:36;5.03;;;4.63;;
40533;SDS011;26233;51.894;10.192;2022-10-15T09:33:12;4.38;;;4.07;;
40533;SDS011;26233;51.894;10.192;2022-10-15T09:35:49;4.38;;;4.07;;
40533;SDS011;26233;51.894;10.192;2022-10-15T09:38:23;4.22;;;3.92;;
40533;SDS011;26233;51.894;10.192;2022-10-15T09:41:02;4.13;;;3.83;;
40533;SDS011;26233;51.894;10.192;2022-10-15T09:43:40;4.05;;;3.75;;
40533;SDS011;26233;51.894;10.192;2022-10-15T09:46:10;3.55;;;3.25;;
40533;SDS011;26233;51.894;10.192;2022-10-15T09:48:40;3.78;;;3.47;;
40533;SDS011;26233;51.894;10.192;2022-10-15T09:51:15;3.90;;;3.50;;
40533;SDS011;26233;51.894;10.192;2022-10-15T09:53:51;3.83;;;3.53;;
40533;SDS011;26233;51.894;10.192;2022-10-15T09:56:27;3.17;;;2.97;;
40533;SDS011;26233;51.894;10.192;2022-10-15T09:59:02;3.40;;;3.08;;
40533;SDS011;26233;51.894;10.192;2022-10-15T10:01:30;3.03;;;2.83;;
40533;SDS011;26233;51.894;10.192;2022-10-15T10:04:10;3.75;;;3.45;;
40533;SDS011;26233;51.894;10.192;2022-10-15T10:06:41;3.47;;;3.28;;
40533;SDS011;26233;51.894;10.192;2022-10-15T10:09:13;3.40;;;3.10;;
40533;SDS011;26233;51.894;10.192;2022-10-15T10:11:46;2.97;;;2.78;;
40533;SDS011;26233;51.894;10.192;2022-10-15T10:14:22;3.03;;;2.83;;
40533;SDS011;26233;51.894;10.192;2022-10-15T10:17:04;3.15;;;2.95;;
40533;SDS011;26233;51.894;10.192;2022-10-15T10:19:44;3.35;;;3.15;;
40533;SDS011;26233;51.894;10.192;2022-10-15T10:22:29;3.25;;;3.05;;
40533;SDS011;26233;51.894;10.192;2022-10-15T10:25:15;4.40;;;3.65;;
40533;SDS011;26233;51.894;10.192;2022-10-15T10:27:58;3.63;;;3.33;;
40533;SDS011;26233;51.894;10.192;2022-10-15T10:30:43;3.60;;;3.33;;
40533;SDS011;26233;51.894;10.192;2022-10-15T10:33:28;3.70;;;3.40;;
40533;SDS011;26233;51.894;10.192;2022-10-15T10:36:00;3.80;;;3.50;;
40533;SDS011;26233;51.894;10.192;2022-10-15T10:38:30;4.18;;;3.88;;
40533;SDS011;26233;51.894;10.192;2022-10-15T10:40:59;3.30;;;3.03;;
40533;SDS011;26233;51.894;10.192;2022-10-15T10:43:32;3.55;;;3.25;;
40533;SDS011;26233;51.894;10.192;2022-10-15T10:46:02;3.05;;;2.85;;
40533;SDS011;26233;51.894;10.192;2022-10-15T10:48:36;3.22;;;3.03;;
40533;SDS011;26233;51.894;10.192;2022-10-15T10:51:10;3.50;;;3.15;;
40533;SDS011;26233;51.894;10.192;2022-10-15T10:53:47;3.10;;;2.90;;
40533;SDS011;26233;51.894;10.192;2022-10-15T10:56:20;3.67;;;3.38;;
40533;SDS011;26233;51.894;10.192;2022-10-15T10:58:51;3.00;;;2.72;;
40533;SDS011;26233;51.894;10.192;2022-10-15T11:01:24;3.40;;;3.10;;
40533;SDS011;26233;51.894;10.192;2022-10-15T11:03:51;2.72;;;2.53;;
40533;SDS011;26233;51.894;10.192;2022-10-15T11:06:33;2.72;;;2.47;;
40533;SDS011;26233;51.894;10.192;2022-10-15T11:09:25;2.80;;;2.60;;
40533;SDS011;26233;51.894;10.192;2022-10-15T11:12:09;2.55;;;2.33;;
40533;SDS011;26233;51.894;10.192;2022-10-15T11:15:07;2.70;;;2.50;;
40533;SDS011;26233;51.894;10.192;2022-10-15T11:17:49;2.33;;;2.15;;
40533;SDS011;26233;51.894;10.192;2022-10-15T11:20:27;1.98;;;1.88;;
40533;SDS011;26233;51.894;10.192;2022-10-15T11:23:09;2.05;;;1.83;;
40533;SDS011;26233;51.894;10.192;2022-10-15T11:25:51;2.17;;;1.98;;
40533;SDS011;26233;51.894;10.192;2022-10-15T11:28:28;2.00;;;1.90;;
40533;SDS011;26233;51.894;10.192;2022-10-15T11:31:14;1.60;;;1.50;;
40533;SDS011;26233;51.894;10.192;2022-10-15T11:33:56;1.83;;;1.73;;
40533;SDS011;26233;51.894;10.192;2022-10-15T11:36:43;1.58;;;1.40;;
40533;SDS011;26233;51.894;10.192;2022-10-15T11:39:29;1.70;;;1.60;;
40533;SDS011;26233;51.894;10.192;2022-10-15T11:42:14;1.67;;;1.58;;
40533;SDS011;26233;51.894;10.192;2022-10-15T11:47:52;1.70;;;1.60;;
40533;SDS011;26233;51.894;10.192;2022-10-15T11:50:26;2.20;;;2.10;;
40533;SDS011;26233;51.894;10.192;2022-10-15T11:53:05;1.90;;;1.80;;
40533;SDS011;26233;51.894;10.192;2022-10-15T11:55:58;2.05;;;1.80;;
40533;SDS011;26233;51.894;10.192;2022-10-15T11:58:31;1.70;;;1.60;;
40533;SDS011;26233;51.894;10.192;2022-10-15T12:01:04;2.03;;;1.92;;
40533;SDS011;26233;51.894;10.192;2022-10-15T12:03:41;2.45;;;2.25;;
40533;SDS011;26233;51.894;10.192;2022-10-15T12:06:18;2.10;;;2.00;;
40533;SDS011;26233;51.894;10.192;2022-10-15T12:08:50;1.90;;;1.80;;
40533;SDS011;26233;51.894;10.192;2022-10-15T12:11:22;2.10;;;2.00;;
40533;SDS011;26233;51.894;10.192;2022-10-15T12:14:05;2.40;;;2.20;;
40533;SDS011;26233;51.894;10.192;2022-10-15T12:16:45;2.50;;;2.30;;
40533;SDS011;26233;51.894;10.192;2022-10-15T12:19:24;2.17;;;1.98;;
40533;SDS011;26233;51.894;10.192;2022-10-15T12:22:02;2.15;;;1.70;;
40533;SDS011;26233;51.894;10.192;2022-10-15T12:27:22;1.90;;;1.80;;
40533;SDS011;26233;51.894;10.192;2022-10-15T12:32:44;2.03;;;1.90;;
40533;SDS011;26233;51.894;10.192;2022-10-15T12:35:23;1.90;;;1.80;;
40533;SDS011;26233;51.894;10.192;2022-10-15T12:38:16;1.60;;;1.50;;
40533;SDS011;26233;51.894;10.192;2022-10-15T12:40:54;1.52;;;1.42;;
40533;SDS011;26233;51.894;10.192;2022-10-15T12:43:35;1.70;;;1.60;;
40533;SDS011;26233;51.894;10.192;2022-10-15T12:46:06;1.30;;;1.20;;
40533;SDS011;26233;51.894;10.192;2022-10-15T12:48:36;1.30;;;1.20;;
40533;SDS011;26233;51.894;10.192;2022-10-15T13:00:34;1.10;;;1.10;;
40533;SDS011;26233;51.894;10.192;2022-10-15T13:03:08;0.88;;;0.88;;
40533;SDS011;26233;51.894;10.192;2022-10-15T13:05:43;1.00;;;0.90;;
40533;SDS011;26233;51.894;10.192;2022-10-15T13:08:12;0.93;;;0.80;;
40533;SDS011;26233;51.894;10.192;2022-10-15T13:10:48;0.80;;;0.80;;
40533;SDS011;26233;51.894;10.192;2022-10-15T13:13:20;0.80;;;0.80;;
40533;SDS011;26233;51.894;10.192;2022-10-15T13:15:54;0.88;;;0.80;;
40533;SDS011;26233;51.894;10.192;2022-10-15T13:18:24;0.80;;;0.80;;
40533;SDS011;26233;51.894;10.192;2022-10-15T13:20:54;0.82;;;0.82;;
40533;SDS011;26233;51.894;10.192;2022-10-15T13:23:24;1.05;;;0.80;;
40533;SDS011;26233;51.894;10.192;2022-10-15T13:26:14;0.80;;;0.80;;
40533;SDS011;26233;51.894;10.192;2022-10-15T13:28:46;0.70;;;0.70;;
40533;SDS011;26233;51.894;10.192;2022-10-15T13:31:16;0.70;;;0.70;;
40533;SDS011;26233;51.894;10.192;2022-10-15T13:33:49;0.65;;;0.65;;
40533;SDS011;26233;51.894;10.192;2022-10-15T13:36:20;0.60;;;0.60;;
40533;SDS011;26233;51.894;10.192;2022-10-15T13:38:51;0.82;;;0.70;;
40533;SDS011;26233;51.894;10.192;2022-10-15T13:41:25;0.70;;;0.60;;
40533;SDS011;26233;51.894;10.192;2022-10-15T13:43:56;1.33;;;0.60;;
40533;SDS011;26233;51.894;10.192;2022-10-15T13:46:26;0.60;;;0.60;;
40533;SDS011;26233;51.894;10.192;2022-10-15T13:48:57;0.60;;;0.60;;
40533;SDS011;26233;51.894;10.192;2022-10-15T13:51:33;0.60;;;0.60;;
40533;SDS011;26233;51.894;10.192;2022-10-15T13:54:06;0.50;;;0.50;;
40533;SDS011;26233;51.894;10.192;2022-10-15T13:56:36;0.50;;;0.50;;
40533;SDS011;26233;51.894;10.192;2022-10-15T13:59:11;0.73;;;0.73;;
40533;SDS011;26233;51.894;10.192;2022-10-15T14:01:45;1.35;;;0.60;;
40533;SDS011;26233;51.894;10.192;2022-10-15T14:04:16;1.02;;;0.70;;
40533;SDS011;26233;51.894;10.192;2022-10-15T14:06:50;0.60;;;0.60;;
40533;SDS011;26233;51.894;10.192;2022-10-15T14:09:24;0.50;;;0.50;;
40533;SDS011;26233;51.894;10.192;2022-10-15T14:11:56;0.70;;;0.70;;
40533;SDS011;26233;51.894;10.192;2022-10-15T14:14:29;0.70;;;0.70;;
40533;SDS011;26233;51.894;10.192;2022-10-15T14:17:01;0.60;;;0.60;;
40533;SDS011;26233;51.894;10.192;2022-10-15T14:19:30;1.48;;;0.80;;
40533;SDS011;26233;51.894;10.192;2022-10-15T14:22:00;0.90;;;0.90;;
40533;SDS011;26233;51.894;10.192;2022-10-15T14:24:29;1.58;;;0.70;;
40533;SDS011;26233;51.894;10.192;2022-10-15T14:27:03;0.75;;;0.68;;
40533;SDS011;26233;51.894;10.192;2022-10-15T14:29:34;0.73;;;0.73;;
40533;SDS011;26233;51.894;10.192;2022-10-15T14:32:19;0.60;;;0.60;;
40533;SDS011;26233;51.894;10.192;2022-10-15T14:34:50;0.70;;;0.70;;
40533;SDS011;26233;51.894;10.192;2022-10-15T14:37:32;0.60;;;0.60;;
40533;SDS011;26233;51.894;10.192;2022-10-15T14:40:12;0.70;;;0.70;;
40533;SDS011;26233;51.894;10.192;2022-10-15T14:42:46;0.68;;;0.65;;
40533;SDS011;26233;51.894;10.192;2022-10-15T14:45:21;0.77;;;0.60;;
40533;SDS011;26233;51.894;10.192;2022-10-15T14:47:53;2.75;;;0.60;;
40533;SDS011;26233;51.894;10.192;2022-10-15T14:50:24;0.90;;;0.60;;
40533;SDS011;26233;51.894;10.192;2022-10-15T14:52:54;0.80;;;0.60;;
40533;SDS011;26233;51.894;10.192;2022-10-15T14:55:27;1.15;;;0.73;;
40533;SDS011;26233;51.894;10.192;2022-10-15T14:57:58;0.63;;;0.63;;
40533;SDS011;26233;51.894;10.192;2022-10-15T15:00:28;0.70;;;0.70;;
40533;SDS011;26233;51.894;10.192;2022-10-15T15:03:00;0.52;;;0.52;;
40533;SDS011;26233;51.894;10.192;2022-10-15T15:05:30;0.80;;;0.70;;
40533;SDS011;26233;51.894;10.192;2022-10-15T15:08:11;0.60;;;0.60;;
40533;SDS011;26233;51.894;10.192;2022-10-15T15:10:38;1.42;;;0.70;;
40533;SDS011;26233;51.894;10.192;2022-10-15T15:13:09;0.82;;;0.57;;
40533;SDS011;26233;51.894;10.192;2022-10-15T15:15:38;0.60;;;0.60;;
40533;SDS011;26233;51.894;10.192;2022-10-15T15:18:08;0.73;;;0.60;;
40533;SDS011;26233;51.894;10.192;2022-10-15T15:20:36;0.60;;;0.60;;
40533;SDS011;26233;51.894;10.192;2022-10-15T15:23:05;0.75;;;0.60;;
40533;SDS011;26233;51.894;10.192;2022-10-15T15:25:34;0.60;;;0.60;;